createdAt,value
2022-08-26T00:01:57.029Z,100766.41
2022-08-26T00:04:26.148Z,100765.59
2022-08-26T00:06:55.670Z,100763.06
2022-08-26T00:09:24.645Z,100765.09
2022-08-26T00:11:53.898Z,100773.50
2022-08-26T00:14:25.036Z,100766.50
2022-08-26T00:16:55.432Z,100770.28
2022-08-26T00:19:22.839Z,100767.94
2022-08-26T00:21:50.640Z,100776.31
2022-08-26T00:24:20.888Z,100768.69
2022-08-26T00:26:49.163Z,100776.59
2022-08-26T00:29:17.192Z,100775.91
2022-08-26T00:31:45.662Z,100774.41
2022-08-26T00:34:15.345Z,100768.28
2022-08-26T00:36:43.803Z,100773.06
2022-08-26T00:39:11.112Z,100773.47
2022-08-26T00:41:40.997Z,100768.38
2022-08-26T00:44:11.240Z,100773.34
2022-08-26T00:46:47.181Z,100766.19
2022-08-26T00:49:37.613Z,100771.19
2022-08-26T00:52:09.721Z,100765.03
2022-08-26T00:54:46.809Z,100762.66
2022-08-26T00:57:18.378Z,100759.28
2022-08-26T00:59:52.110Z,100755.88
2022-08-26T01:02:20.050Z,100751.63
2022-08-26T01:04:55.451Z,100751.84
2022-08-26T01:07:26.260Z,100761.44
2022-08-26T01:09:56.508Z,100760.78
2022-08-26T01:12:25.877Z,100761.81
2022-08-26T01:14:53.078Z,100756.34
2022-08-26T01:17:20.170Z,100758.25
2022-08-26T01:19:54.655Z,100759.09
2022-08-26T01:22:31.655Z,100746.63
2022-08-26T01:25:04.566Z,100753.13
2022-08-26T01:27:33.551Z,100754.13
2022-08-26T01:30:02.456Z,100758.75
2022-08-26T01:32:33.623Z,100749.78
2022-08-26T01:35:01.630Z,100750.16
2022-08-26T01:37:36.444Z,100757.66
2022-08-26T01:40:08.324Z,100758.03
2022-08-26T01:42:35.693Z,100752.78
2022-08-26T01:45:14.761Z,100755.66
2022-08-26T01:47:43.130Z,100758.41
2022-08-26T01:50:28.144Z,100758.03
2022-08-26T01:53:02.923Z,100756.34
2022-08-26T01:55:34.104Z,100759.94
2022-08-26T01:58:10.669Z,100761.13
2022-08-26T02:00:39.238Z,100758.09
2022-08-26T02:03:17.380Z,100760.34
2022-08-26T02:05:53.325Z,100759.00
2022-08-26T02:08:32.892Z,100755.59
2022-08-26T02:11:00.438Z,100762.31
2022-08-26T02:13:31.492Z,100749.50
2022-08-26T02:16:01.154Z,100756.00
2022-08-26T02:18:34.247Z,100754.09
2022-08-26T02:21:01.553Z,100754.09
2022-08-26T02:23:28.751Z,100749.50
2022-08-26T02:26:04.878Z,100756.84
2022-08-26T02:28:40.008Z,100748.16
2022-08-26T02:31:07.915Z,100747.50
2022-08-26T02:33:35.227Z,100743.91
2022-08-26T02:36:03.612Z,100742.22
2022-08-26T02:38:30.729Z,100740.50
2022-08-26T02:40:57.815Z,100739.66
2022-08-26T02:43:31.329Z,100743.22
2022-08-26T02:46:00.058Z,100740.22
2022-08-26T02:48:28.741Z,100739.16
2022-08-26T02:50:55.789Z,100736.59
2022-08-26T02:53:25.456Z,100729.28
2022-08-26T02:55:52.992Z,100734.91
2022-08-26T02:58:20.646Z,100734.44
2022-08-26T03:00:52.799Z,100724.72
2022-08-26T03:03:22.498Z,100720.47
2022-08-26T03:05:52.401Z,100720.19
2022-08-26T03:08:20.441Z,100721.53
2022-08-26T03:10:48.537Z,100729.25
2022-08-26T03:13:18.157Z,100719.88
2022-08-26T03:15:45.954Z,100718.38
2022-08-26T03:18:15.014Z,100724.88
2022-08-26T03:20:42.100Z,100719.75
2022-08-26T03:23:11.067Z,100717.56
2022-08-26T03:25:38.674Z,100723.38
2022-08-26T03:28:05.969Z,100717.41
2022-08-26T03:30:44.847Z,100712.69
2022-08-26T03:33:13.790Z,100710.16
2022-08-26T03:35:43.744Z,100706.91
2022-08-26T03:38:11.479Z,100706.25
2022-08-26T03:40:39.901Z,100709.16
2022-08-26T03:43:09.571Z,100704.72
2022-08-26T03:45:37.798Z,100708.47
2022-08-26T03:48:05.826Z,100713.09
2022-08-26T03:50:34.347Z,100721.28
2022-08-26T03:53:04.234Z,100731.34
2022-08-26T03:55:34.603Z,100733.22
2022-08-26T03:58:03.181Z,100731.34
2022-08-26T04:00:31.074Z,100739.53
2022-08-26T04:02:58.118Z,100734.06
2022-08-26T04:05:25.413Z,100738.69
2022-08-26T04:07:52.972Z,100736.47
2022-08-26T04:10:29.025Z,100734.28
2022-08-26T04:12:59.303Z,100739.25
2022-08-26T04:15:27.546Z,100737.53
2022-08-26T04:17:56.055Z,100735.66
2022-08-26T04:20:25.336Z,100736.50
2022-08-26T04:22:52.428Z,100743.31
2022-08-26T04:25:20.497Z,100755.81
2022-08-26T04:27:48.311Z,100750.84
2022-08-26T04:30:16.012Z,100748.28
2022-08-26T04:32:44.082Z,100750.84
2022-08-26T04:35:11.245Z,100747.25
2022-08-26T04:37:38.585Z,100731.09
2022-08-26T04:40:06.836Z,100744.22
2022-08-26T04:42:34.330Z,100737.41
2022-08-26T04:45:02.083Z,100740.13
2022-08-26T04:47:33.012Z,100744.91
2022-08-26T04:50:00.331Z,100747.81
2022-08-26T04:52:29.312Z,100755.81
2022-08-26T04:54:58.169Z,100744.91
2022-08-26T04:57:25.244Z,100759.06
2022-08-26T04:59:53.167Z,100750.03
2022-08-26T05:02:20.679Z,100754.78
2022-08-26T05:04:47.639Z,100757.72
2022-08-26T05:07:18.914Z,100756.81
2022-08-26T05:09:48.197Z,100762.97
2022-08-26T05:12:15.225Z,100756.47
2022-08-26T05:14:43.492Z,100752.75
2022-08-26T05:17:10.507Z,100751.72
2022-08-26T05:19:43.013Z,100758.03
2022-08-26T05:22:10.446Z,100751.38
2022-08-26T05:24:41.300Z,100765.69
2022-08-26T05:27:11.752Z,100766.34
2022-08-26T05:29:40.711Z,100768.72
2022-08-26T05:32:07.966Z,100772.16
2022-08-26T05:34:37.506Z,100777.44
2022-08-26T05:37:06.256Z,100776.59
2022-08-26T05:39:33.931Z,100773.88
2022-08-26T05:42:01.350Z,100770.09
2022-08-26T05:44:29.304Z,100770.59
2022-08-26T05:47:16.434Z,100779.47
2022-08-26T05:49:49.256Z,100787.16
2022-08-26T05:52:19.644Z,100785.06
2022-08-26T05:54:47.692Z,100769.38
2022-08-26T05:57:15.795Z,100773.47
2022-08-26T05:59:42.817Z,100772.25
2022-08-26T06:02:10.013Z,100769.19
2022-08-26T06:04:37.010Z,100766.09
2022-08-26T06:07:04.145Z,100770.34
2022-08-26T06:09:32.967Z,100765.41
2022-08-26T06:12:01.904Z,100769.47
2022-08-26T06:14:30.670Z,100769.09
2022-08-26T06:16:57.992Z,100764.31
2022-08-26T06:19:25.729Z,100775.75
2022-08-26T06:22:23.327Z,100773.66
2022-08-26T06:25:09.902Z,100775.00
2022-08-26T06:27:37.113Z,100773.78
2022-08-26T06:30:04.753Z,100773.63
2022-08-26T06:32:31.792Z,100780.78
2022-08-26T06:34:59.183Z,100784.19
2022-08-26T06:37:26.159Z,100784.00
2022-08-26T06:39:53.144Z,100786.38
2022-08-26T06:42:20.364Z,100788.06
2022-08-26T06:44:47.781Z,100787.72
2022-08-26T06:47:15.167Z,100785.50
2022-08-26T06:49:42.118Z,100785.16
2022-08-26T06:52:11.342Z,100787.53
2022-08-26T06:54:43.107Z,100786.16
2022-08-26T06:57:12.777Z,100785.75
2022-08-26T06:59:41.252Z,100787.13
2022-08-26T07:02:08.633Z,100787.78
2022-08-26T07:04:41.063Z,100783.00
2022-08-26T07:07:09.668Z,100783.66
2022-08-26T07:09:37.471Z,100789.63
2022-08-26T07:12:07.810Z,100791.13
2022-08-26T07:14:36.978Z,100797.09
2022-08-26T07:17:04.409Z,100791.25
2022-08-26T07:19:31.933Z,100798.91
2022-08-26T07:22:03.535Z,100803.66
2022-08-26T07:24:37.503Z,100792.16
2022-08-26T07:27:09.696Z,100800.81
2022-08-26T07:29:39.435Z,100802.19
2022-08-26T07:32:07.080Z,100805.19
2022-08-26T07:34:34.683Z,100798.56
2022-08-26T07:37:02.023Z,100809.81
2022-08-26T07:39:31.595Z,100802.09
2022-08-26T07:42:07.725Z,100800.31
2022-08-26T07:44:37.695Z,100796.16
2022-08-26T07:47:24.556Z,100806.34
2022-08-26T07:49:54.507Z,100809.41
2022-08-26T07:52:26.377Z,100804.19
2022-08-26T07:54:58.572Z,100793.56
2022-08-26T07:57:27.208Z,100795.56
2022-08-26T07:59:55.506Z,100798.56
2022-08-26T08:02:23.740Z,100790.66
2022-08-26T08:04:51.837Z,100791.75
2022-08-26T08:07:18.992Z,100791.94
2022-08-26T08:09:49.433Z,100790.50
2022-08-26T08:12:19.160Z,100786.13
2022-08-26T08:14:46.935Z,100783.22
2022-08-26T08:17:16.181Z,100780.09
2022-08-26T08:19:43.435Z,100785.22
2022-08-26T08:22:17.343Z,100777.25
2022-08-26T08:24:50.016Z,100783.03
2022-08-26T08:27:23.648Z,100784.16
2022-08-26T08:29:55.029Z,100778.75
2022-08-26T08:32:23.437Z,100775.25
2022-08-26T08:34:50.444Z,100779.09
2022-08-26T08:37:17.583Z,100782.50
2022-08-26T08:39:44.593Z,100779.16
2022-08-26T08:42:30.894Z,100775.31
2022-08-26T08:45:04.761Z,100778.13
2022-08-26T08:47:47.446Z,100774.63
2022-08-26T08:50:35.842Z,100772.53
2022-08-26T08:53:15.150Z,100765.81
2022-08-26T08:55:50.817Z,100765.00
2022-08-26T08:58:21.729Z,100765.13
2022-08-26T09:01:00.890Z,100761.78
2022-08-26T09:04:18.405Z,100766.66
2022-08-26T09:06:47.480Z,100753.66
2022-08-26T09:09:24.666Z,100760.75
2022-08-26T09:11:52.574Z,100750.69
2022-08-26T09:14:19.705Z,100762.13
2022-08-26T09:17:09.879Z,100758.44
2022-08-26T09:19:48.101Z,100759.75
2022-08-26T09:22:36.545Z,100751.81
2022-08-26T09:25:11.153Z,100756.09
2022-08-26T09:27:41.496Z,100753.59
2022-08-26T09:30:12.796Z,100757.47
2022-08-26T09:32:40.461Z,100752.84
2022-08-26T09:35:26.371Z,100749.72
2022-08-26T09:37:53.738Z,100749.75
2022-08-26T09:40:34.680Z,100742.59
2022-08-26T09:43:10.212Z,100744.31
2022-08-26T09:45:41.378Z,100738.63
2022-08-26T09:48:37.744Z,100739.28
2022-08-26T09:51:32.085Z,100735.06
2022-08-26T09:54:02.799Z,100732.59
2022-08-26T09:56:34.993Z,100729.03
2022-08-26T09:59:04.607Z,100728.81
2022-08-26T10:01:43.812Z,100729.50
2022-08-26T10:04:21.041Z,100721.91
2022-08-26T10:07:08.166Z,100718.94
2022-08-26T10:09:45.839Z,100721.91
2022-08-26T10:12:21.227Z,100714.69
2022-08-26T10:14:55.653Z,100711.97
2022-08-26T10:17:32.289Z,100714.31
2022-08-26T10:20:24.165Z,100707.78
2022-08-26T10:23:18.164Z,100705.69
2022-08-26T10:25:59.753Z,100710.53
2022-08-26T10:28:44.394Z,100701.19
2022-08-26T10:31:41.311Z,100700.16
2022-08-26T10:34:09.794Z,100696.31
2022-08-26T10:37:13.604Z,100697.13
2022-08-26T10:39:57.139Z,100694.59
2022-08-26T10:42:37.564Z,100690.16
2022-08-26T10:45:14.830Z,100686.13
2022-08-26T10:47:57.539Z,100684.41
2022-08-26T10:50:33.548Z,100674.66
2022-08-26T10:54:01.043Z,100690.97
2022-08-26T10:56:32.738Z,100672.13
2022-08-26T10:59:06.015Z,100669.13
2022-08-26T11:01:51.040Z,100663.59
2022-08-26T11:04:35.747Z,100665.28
2022-08-26T11:07:44.311Z,100663.97
2022-08-26T11:10:20.779Z,100664.78
2022-08-26T11:12:53.957Z,100660.09
2022-08-26T11:15:24.751Z,100657.06
2022-08-26T11:17:52.078Z,100649.00
2022-08-26T11:20:44.894Z,100653.38
2022-08-26T11:23:12.952Z,100641.06
2022-08-26T11:26:05.220Z,100649.53
2022-08-26T11:28:51.716Z,100635.47
2022-08-26T11:31:19.129Z,100640.94
2022-08-26T11:33:58.113Z,100640.66
2022-08-26T11:36:49.145Z,100644.47
2022-08-26T11:39:54.081Z,100633.78
2022-08-26T11:42:49.228Z,100638.41
2022-08-26T11:45:22.989Z,100638.41
2022-08-26T11:47:50.884Z,100628.59
2022-08-26T11:50:36.076Z,100628.91
2022-08-26T11:53:06.382Z,100626.72
2022-08-26T11:55:42.608Z,100628.06
2022-08-26T11:58:12.713Z,100628.66
2022-08-26T12:00:46.399Z,100618.63
2022-08-26T12:03:23.027Z,100615.78
2022-08-26T12:05:52.514Z,100610.19
2022-08-26T12:08:27.798Z,100611.41
2022-08-26T12:11:09.202Z,100604.03
2022-08-26T12:13:39.044Z,100602.38
2022-08-26T12:16:06.989Z,100600.69
2022-08-26T12:18:39.162Z,100598.78
2022-08-26T12:21:24.544Z,100593.38
2022-08-26T12:23:55.853Z,100588.19
2022-08-26T12:26:36.408Z,100590.16
2022-08-26T12:29:26.632Z,100581.41
2022-08-26T12:32:14.794Z,100579.41
2022-08-26T12:34:44.613Z,100576.56
2022-08-26T12:37:14.161Z,100567.22
2022-08-26T12:39:44.595Z,100564.22
2022-08-26T12:42:17.199Z,100561.22
2022-08-26T12:45:03.753Z,100551.47
2022-08-26T12:47:43.955Z,100553.88
2022-08-26T12:50:28.827Z,100554.81
2022-08-26T12:53:31.244Z,100544.34
2022-08-26T12:56:03.722Z,100534.28
2022-08-26T12:58:37.129Z,100539.97
2022-08-26T13:01:04.033Z,100531.53
2022-08-26T13:03:33.941Z,100526.94
2022-08-26T13:06:29.748Z,100522.50
2022-08-26T13:09:08.774Z,100528.31
2022-08-26T13:11:59.292Z,100523.28
2022-08-26T13:14:29.101Z,100515.63
2022-08-26T13:16:56.045Z,100518.41
2022-08-26T13:19:25.605Z,100516.50
2022-08-26T13:22:00.576Z,100511.75
2022-08-26T13:24:37.172Z,100508.38
2022-08-26T13:27:08.196Z,100505.50
2022-08-26T13:29:35.294Z,100509.44
2022-08-26T13:32:05.070Z,100504.88
2022-08-26T13:34:32.958Z,100502.94
2022-08-26T13:37:00.077Z,100503.88
2022-08-26T13:39:27.347Z,100491.00
2022-08-26T13:41:54.824Z,100493.66
2022-08-26T13:44:21.946Z,100487.06
2022-08-26T13:46:49.315Z,100485.75
2022-08-26T13:49:16.386Z,100484.88
2022-08-26T13:51:43.611Z,100481.28
2022-08-26T13:54:10.678Z,100483.56
2022-08-26T13:56:37.705Z,100471.44
2022-08-26T13:59:06.512Z,100474.47
2022-08-26T14:01:35.497Z,100469.69
2022-08-26T14:04:03.284Z,100477.72
2022-08-26T14:06:30.841Z,100469.72
2022-08-26T14:08:58.145Z,100460.22
2022-08-26T14:11:25.277Z,100464.16
2022-08-26T14:13:52.443Z,100463.84
2022-08-26T14:16:34.438Z,100467.34
2022-08-26T14:19:02.490Z,100457.31
2022-08-26T14:21:32.639Z,100457.75
2022-08-26T14:24:01.014Z,100455.69
2022-08-26T14:26:29.794Z,100457.34
2022-08-26T14:28:59.550Z,100459.63
2022-08-26T14:31:29.423Z,100454.63
2022-08-26T14:34:04.640Z,100456.50
2022-08-26T14:36:33.113Z,100464.94
2022-08-26T14:39:10.709Z,100454.09
2022-08-26T14:41:57.035Z,100448.56
2022-08-26T14:44:32.044Z,100446.97
2022-08-26T14:47:02.630Z,100454.00
2022-08-26T14:49:31.323Z,100450.63
2022-08-26T14:52:00.939Z,100449.19
2022-08-26T14:54:29.488Z,100450.16
2022-08-26T14:57:07.619Z,100448.38
2022-08-26T14:59:42.256Z,100453.81
2022-08-26T15:02:27.747Z,100450.72
2022-08-26T15:05:02.673Z,100452.06
2022-08-26T15:07:30.032Z,100456.16
2022-08-26T15:09:57.835Z,100462.91
2022-08-26T15:12:24.886Z,100465.28
2022-08-26T15:14:52.477Z,100455.56
2022-08-26T15:17:20.135Z,100455.81
2022-08-26T15:19:47.404Z,100459.91
2022-08-26T15:22:14.406Z,100460.25
2022-08-26T15:24:41.554Z,100457.25
2022-08-26T15:27:09.076Z,100453.97
2022-08-26T15:29:36.713Z,100446.41
2022-08-26T15:32:04.625Z,100448.22
2022-08-26T15:34:32.371Z,100453.66
2022-08-26T15:36:59.709Z,100445.03
2022-08-26T15:39:27.269Z,100432.75
2022-08-26T15:41:56.156Z,100441.50
2022-08-26T15:44:25.104Z,100436.50
2022-08-26T15:46:56.562Z,100446.59
2022-08-26T15:49:25.351Z,100448.38
2022-08-26T15:51:52.736Z,100448.66
2022-08-26T15:54:23.333Z,100452.47
2022-08-26T15:56:52.174Z,100451.88
2022-08-26T15:59:21.497Z,100445.75
2022-08-26T16:01:48.676Z,100457.66
2022-08-26T16:04:15.925Z,100462.59
2022-08-26T16:06:43.636Z,100459.81
2022-08-26T16:09:11.475Z,100460.06
2022-08-26T16:11:39.463Z,100454.97
2022-08-26T16:14:07.207Z,100459.53
2022-08-26T16:16:39.311Z,100467.72
2022-08-26T16:19:08.232Z,100467.09
2022-08-26T16:21:35.985Z,100459.53
2022-08-26T16:24:04.141Z,100459.19
2022-08-26T16:26:34.418Z,100458.81
2022-08-26T16:29:06.767Z,100448.72
2022-08-26T16:31:35.534Z,100461.06
2022-08-26T16:34:02.810Z,100461.53
2022-08-26T16:36:29.989Z,100452.66
2022-08-26T16:38:57.052Z,100453.72
2022-08-26T16:41:29.606Z,100444.84
2022-08-26T16:43:57.586Z,100442.53
2022-08-26T16:46:28.700Z,100449.63
2022-08-26T16:48:57.787Z,100454.75
2022-08-26T16:51:27.855Z,100450.53
2022-08-26T16:53:56.948Z,100446.34
2022-08-26T16:56:33.401Z,100448.72
2022-08-26T16:59:06.615Z,100449.69
2022-08-26T17:01:34.172Z,100441.88
2022-08-26T17:04:01.379Z,100444.50
2022-08-26T17:06:28.729Z,100440.28
2022-08-26T17:08:55.936Z,100445.44
2022-08-26T17:11:23.657Z,100431.03
2022-08-26T17:13:51.061Z,100426.94
2022-08-26T17:16:18.421Z,100422.72
2022-08-26T17:18:45.749Z,100424.25
2022-08-26T17:21:13.860Z,100438.06
2022-08-26T17:23:42.915Z,100430.00
2022-08-26T17:26:12.370Z,100426.66
2022-08-26T17:28:40.609Z,100428.78
2022-08-26T17:31:11.188Z,100430.06
2022-08-26T17:33:39.745Z,100427.75
2022-08-26T17:36:09.372Z,100429.94
2022-08-26T17:38:38.211Z,100431.47
2022-08-26T17:41:11.109Z,100428.31
2022-08-26T17:43:39.316Z,100423.72
2022-08-26T17:46:10.813Z,100425.28
2022-08-26T17:48:40.861Z,100427.28
2022-08-26T17:51:12.502Z,100421.16
2022-08-26T17:53:41.373Z,100425.44
2022-08-26T17:56:14.947Z,100421.47
2022-08-26T17:58:51.020Z,100429.38
2022-08-26T18:01:20.804Z,100425.63
2022-08-26T18:03:48.765Z,100426.91
2022-08-26T18:06:15.837Z,100426.13
2022-08-26T18:08:43.985Z,100423.66
2022-08-26T18:11:14.776Z,100422.22
2022-08-26T18:13:47.005Z,100431.78
2022-08-26T18:16:17.511Z,100428.84
2022-08-26T18:18:45.627Z,100429.16
2022-08-26T18:21:16.986Z,100437.03
2022-08-26T18:23:45.644Z,100438.41
2022-08-26T18:26:33.635Z,100444.13
2022-08-26T18:29:01.102Z,100437.19
2022-08-26T18:31:29.585Z,100444.44
2022-08-26T18:33:57.221Z,100448.44
2022-08-26T18:36:32.850Z,100445.06
2022-08-26T18:39:01.266Z,100441.69
2022-08-26T18:41:31.587Z,100438.75
2022-08-26T18:44:00.299Z,100435.84
2022-08-26T18:46:28.342Z,100449.22
2022-08-26T18:48:57.444Z,100444.19
2022-08-26T18:51:29.990Z,100445.66
2022-08-26T18:54:01.232Z,100441.91
2022-08-26T18:56:29.884Z,100449.16
2022-08-26T18:58:58.396Z,100442.41
2022-08-26T19:01:27.808Z,100440.31
2022-08-26T19:04:00.116Z,100443.75
2022-08-26T19:06:31.597Z,100449.28
2022-08-26T19:09:00.280Z,100455.41
2022-08-26T19:11:32.452Z,100454.41
2022-08-26T19:14:13.593Z,100455.28
2022-08-26T19:16:44.625Z,100457.22
2022-08-26T19:19:13.248Z,100466.13
2022-08-26T19:21:55.522Z,100465.09
2022-08-26T19:24:25.997Z,100474.00
2022-08-26T19:27:00.091Z,100480.19
2022-08-26T19:29:33.224Z,100479.13
2022-08-26T19:32:02.098Z,100480.41
2022-08-26T19:34:29.899Z,100479.16
2022-08-26T19:36:58.804Z,100484.25
2022-08-26T19:39:26.935Z,100489.91
2022-08-26T19:41:54.194Z,100492.25
2022-08-26T19:44:41.628Z,100490.78
2022-08-26T19:47:10.531Z,100485.94
2022-08-26T19:49:38.255Z,100488.28
2022-08-26T19:52:06.543Z,100481.50
2022-08-26T19:54:36.175Z,100481.31
2022-08-26T19:57:04.068Z,100489.16
2022-08-26T19:59:33.102Z,100488.75
2022-08-26T20:02:01.341Z,100487.47
2022-08-26T20:04:31.248Z,100491.72
2022-08-26T20:07:01.951Z,100494.88
2022-08-26T20:09:31.035Z,100491.72
2022-08-26T20:11:58.797Z,100486.66
2022-08-26T20:14:30.305Z,100482.41
2022-08-26T20:16:57.857Z,100487.72
2022-08-26T20:19:46.110Z,100488.78
2022-08-26T20:22:18.880Z,100498.25
2022-08-26T20:24:47.163Z,100493.19
2022-08-26T20:27:15.579Z,100491.06
2022-08-26T20:29:43.133Z,100497.22
2022-08-26T20:32:11.936Z,100492.38
2022-08-26T20:34:40.387Z,100496.97
2022-08-26T20:37:08.529Z,100493.81
2022-08-26T20:39:35.925Z,100502.47
2022-08-26T20:42:04.310Z,100502.88
2022-08-26T20:44:32.715Z,100504.78
2022-08-26T20:47:02.485Z,100499.53
2022-08-26T20:49:31.097Z,100497.19
2022-08-26T20:52:00.248Z,100488.13
2022-08-26T20:54:28.601Z,100494.88
2022-08-26T20:56:58.211Z,100498.69
2022-08-26T20:59:26.439Z,100504.38
2022-08-26T21:01:53.983Z,100502.47
2022-08-26T21:04:27.496Z,100505.22
2022-08-26T21:06:55.706Z,100503.31
2022-08-26T21:09:25.090Z,100506.28
2022-08-26T21:11:53.846Z,100513.03
2022-08-26T21:14:22.935Z,100512.19
2022-08-26T21:16:53.625Z,100513.25
2022-08-26T21:19:21.062Z,100506.91
2022-08-26T21:21:50.762Z,100513.44
2022-08-26T21:24:18.129Z,100507.94
2022-08-26T21:26:46.104Z,100514.28
2022-08-26T21:29:13.989Z,100517.88
2022-08-26T21:31:46.505Z,100520.63
2022-08-26T21:34:17.732Z,100515.34
2022-08-26T21:36:52.520Z,100518.91
2022-08-26T21:39:19.936Z,100516.41
2022-08-26T21:41:47.341Z,100511.94
2022-08-26T21:44:16.713Z,100512.34
2022-08-26T21:46:45.669Z,100513.66
2022-08-26T21:49:15.941Z,100515.94
2022-08-26T21:51:47.492Z,100515.47
2022-08-26T21:54:15.653Z,100509.56
2022-08-26T21:56:46.816Z,100511.69
2022-08-26T21:59:18.279Z,100515.47
2022-08-26T22:01:48.643Z,100515.47
2022-08-26T22:04:17.172Z,100511.03
2022-08-26T22:06:51.862Z,100507.63
2022-08-26T22:09:23.157Z,100505.13
2022-08-26T22:11:51.318Z,100507.84
2022-08-26T22:14:30.427Z,100497.94
2022-08-26T22:16:59.567Z,100493.72
2022-08-26T22:19:26.990Z,100501.09
2022-08-26T22:21:55.711Z,100504.69
2022-08-26T22:24:25.967Z,100506.59
2022-08-26T22:26:54.680Z,100506.78
2022-08-26T22:29:22.530Z,100509.94
2022-08-26T22:31:49.809Z,100504.84
2022-08-26T22:34:19.481Z,100506.16
2022-08-26T22:36:49.108Z,100496.41
2022-08-26T22:39:22.108Z,100500.22
2022-08-26T22:41:49.933Z,100496.63
2022-08-26T22:44:20.488Z,100500.41
2022-08-26T22:46:50.310Z,100498.09
2022-08-26T22:49:17.768Z,100499.56
2022-08-26T22:51:46.436Z,100510.28
2022-08-26T22:54:15.559Z,100504.56
2022-08-26T22:56:45.060Z,100504.34
2022-08-26T22:59:13.127Z,100505.94
2022-08-26T23:01:43.502Z,100512.28
2022-08-26T23:04:11.169Z,100517.69
2022-08-26T23:06:43.250Z,100513.06
2022-08-26T23:09:18.222Z,100509.00
2022-08-26T23:11:47.545Z,100511.13
2022-08-26T23:14:16.991Z,100508.38
2022-08-26T23:16:44.393Z,100504.78
2022-08-26T23:19:14.515Z,100511.31
2022-08-26T23:21:42.268Z,100516.16
2022-08-26T23:24:10.139Z,100498.22
2022-08-26T23:26:38.812Z,100500.97
2022-08-26T23:29:08.761Z,100499.47
2022-08-26T23:31:38.729Z,100498.81
2022-08-26T23:34:24.921Z,100499.69
2022-08-26T23:36:52.825Z,100497.13
2022-08-26T23:39:21.175Z,100498.38
2022-08-26T23:41:48.292Z,100493.28
2022-08-26T23:44:15.321Z,100496.44
2022-08-26T23:46:43.085Z,100497.88
2022-08-26T23:49:10.503Z,100500.41
2022-08-26T23:51:56.964Z,100507.13
2022-08-26T23:54:24.264Z,100508.94
2022-08-26T23:56:51.327Z,100507.44
2022-08-26T23:59:18.397Z,100503.19
